sensor_id;sensor_type;location;lat;lon;timestamp;pressure;altitude;pressure_sealevel;temperature;humidity
818;BME280;391;51.052;6.954;2022-11-15T00:01:06;100362.53;;;10.56;93.31
818;BME280;391;51.052;6.954;2022-11-15T00:03:28;100359.91;;;10.55;93.27
818;BME280;391;51.052;6.954;2022-11-15T00:05:51;100358.25;;;10.58;93.39
818;BME280;391;51.052;6.954;2022-11-15T00:08:13;100354.84;;;10.62;93.57
818;BME280;391;51.052;6.954;2022-11-15T00:10:35;100361.06;;;10.68;93.47
818;BME280;391;51.052;6.954;2022-11-15T00:12:57;100363.75;;;10.72;93.12
818;BME280;391;51.052;6.954;2022-11-15T00:15:20;100361.13;;;10.71;93.32
818;BME280;391;51.052;6.954;2022-11-15T00:17:42;100362.09;;;10.76;93.34
818;BME280;391;51.052;6.954;2022-11-15T00:20:05;100294.41;;;10.40;93.03
818;BME280;391;51.052;6.954;2022-11-15T00:22:31;100357.88;;;10.81;93.52
818;BME280;391;51.052;6.954;2022-11-15T00:24:54;100366.66;;;10.86;93.60
818;BME280;391;51.052;6.954;2022-11-15T00:27:15;100372.00;;;10.92;93.52
818;BME280;391;51.052;6.954;2022-11-15T00:29:37;100368.56;;;10.93;93.15
818;BME280;391;51.052;6.954;2022-11-15T00:32:05;100369.50;;;10.96;93.13
818;BME280;391;51.052;6.954;2022-11-15T00:34:27;100350.31;;;10.93;93.25
818;BME280;391;51.052;6.954;2022-11-15T00:36:49;100353.09;;;11.02;93.04
818;BME280;391;51.052;6.954;2022-11-15T00:39:11;100358.38;;;11.03;93.07
818;BME280;391;51.052;6.954;2022-11-15T00:41:33;100354.06;;;11.05;93.61
818;BME280;391;51.052;6.954;2022-11-15T00:43:55;100353.22;;;11.08;93.07
818;BME280;391;51.052;6.954;2022-11-15T00:46:17;100363.72;;;11.11;93.36
818;BME280;391;51.052;6.954;2022-11-15T00:48:40;100360.34;;;11.15;92.97
818;BME280;391;51.052;6.954;2022-11-15T00:51:03;100355.19;;;11.18;93.00
818;BME280;391;51.052;6.954;2022-11-15T00:53:25;100356.06;;;11.19;92.84
818;BME280;391;51.052;6.954;2022-11-15T00:55:47;100351.75;;;11.21;93.11
818;BME280;391;51.052;6.954;2022-11-15T00:58:09;100357.00;;;11.22;92.99
818;BME280;391;51.052;6.954;2022-11-15T01:00:31;100343.09;;;11.23;92.91
818;BME280;391;51.052;6.954;2022-11-15T01:02:53;100348.41;;;11.26;92.76
818;BME280;391;51.052;6.954;2022-11-15T01:05:16;100344.91;;;11.27;92.74
818;BME280;391;51.052;6.954;2022-11-15T01:07:41;100343.25;;;11.29;92.48
818;BME280;391;51.052;6.954;2022-11-15T01:10:04;100347.59;;;11.30;92.67
818;BME280;391;51.052;6.954;2022-11-15T01:12:26;100341.53;;;11.33;92.61
818;BME280;391;51.052;6.954;2022-11-15T01:14:49;100349.31;;;11.30;92.85
818;BME280;391;51.052;6.954;2022-11-15T01:17:11;100338.91;;;11.31;92.62
818;BME280;391;51.052;6.954;2022-11-15T01:19:33;100344.09;;;11.30;92.70
818;BME280;391;51.052;6.954;2022-11-15T01:21:57;100331.03;;;11.28;92.97
818;BME280;391;51.052;6.954;2022-11-15T01:24:18;100333.66;;;11.30;92.78
818;BME280;391;51.052;6.954;2022-11-15T01:26:40;100335.41;;;11.31;92.94
818;BME280;391;51.052;6.954;2022-11-15T01:29:03;100337.19;;;11.32;92.94
818;BME280;391;51.052;6.954;2022-11-15T01:31:25;100332.03;;;11.35;93.11
818;BME280;391;51.052;6.954;2022-11-15T01:33:47;100330.25;;;11.34;93.01
818;BME280;391;51.052;6.954;2022-11-15T01:36:12;100338.13;;;11.35;92.97
818;BME280;391;51.052;6.954;2022-11-15T01:38:36;100332.97;;;11.40;92.97
818;BME280;391;51.052;6.954;2022-11-15T01:40:58;100329.47;;;11.39;93.24
818;BME280;391;51.052;6.954;2022-11-15T01:43:22;100328.63;;;11.39;93.23
818;BME280;391;51.052;6.954;2022-11-15T01:45:45;100322.53;;;11.40;93.26
818;BME280;391;51.052;6.954;2022-11-15T01:48:12;100324.38;;;11.44;93.49
818;BME280;391;51.052;6.954;2022-11-15T01:50:34;100327.97;;;11.50;92.92
818;BME280;391;51.052;6.954;2022-11-15T01:52:56;100321.03;;;11.52;93.06
818;BME280;391;51.052;6.954;2022-11-15T01:55:21;100326.34;;;11.58;93.02
818;BME280;391;51.052;6.954;2022-11-15T01:57:47;100309.91;;;11.61;92.77
818;BME280;391;51.052;6.954;2022-11-15T02:00:11;100311.69;;;11.63;92.54
818;BME280;391;51.052;6.954;2022-11-15T02:02:36;100312.63;;;11.68;92.52
818;BME280;391;51.052;6.954;2022-11-15T02:04:58;100316.97;;;11.68;92.10
818;BME280;391;51.052;6.954;2022-11-15T02:07:21;100308.22;;;11.66;92.41
818;BME280;391;51.052;6.954;2022-11-15T02:09:44;100304.78;;;11.67;92.55
818;BME280;391;51.052;6.954;2022-11-15T02:12:09;100301.38;;;11.71;92.70
818;BME280;391;51.052;6.954;2022-11-15T02:14:33;100290.97;;;11.73;92.66
818;BME280;391;51.052;6.954;2022-11-15T02:16:59;100283.97;;;11.72;92.92
818;BME280;391;51.052;6.954;2022-11-15T02:19:41;100282.31;;;11.75;92.64
818;BME280;391;51.052;6.954;2022-11-15T02:22:27;100267.38;;;11.69;92.21
818;BME280;391;51.052;6.954;2022-11-15T02:25:13;100282.28;;;11.74;92.33
818;BME280;391;51.052;6.954;2022-11-15T02:28:06;100279.63;;;11.71;92.75
818;BME280;391;51.052;6.954;2022-11-15T02:30:38;100282.28;;;11.74;92.44
818;BME280;391;51.052;6.954;2022-11-15T02:33:08;100283.13;;;11.73;92.82
818;BME280;391;51.052;6.954;2022-11-15T02:35:39;100278.75;;;11.70;92.90
818;BME280;391;51.052;6.954;2022-11-15T02:38:09;100277.03;;;11.71;92.95
818;BME280;391;51.052;6.954;2022-11-15T02:40:38;100224.19;;;11.37;92.84
818;BME280;391;51.052;6.954;2022-11-15T02:43:08;100271.72;;;11.67;93.16
818;BME280;391;51.052;6.954;2022-11-15T02:45:52;100272.56;;;11.68;93.09
818;BME280;391;51.052;6.954;2022-11-15T02:48:17;100233.16;;;11.51;92.82
818;BME280;391;51.052;6.954;2022-11-15T02:50:39;100269.19;;;11.71;92.85
818;BME280;391;51.052;6.954;2022-11-15T02:53:03;100262.25;;;11.73;92.86
818;BME280;391;51.052;6.954;2022-11-15T02:55:27;100220.03;;;11.48;92.90
818;BME280;391;51.052;6.954;2022-11-15T02:57:52;100264.94;;;11.79;93.09
818;BME280;391;51.052;6.954;2022-11-15T03:00:17;100263.19;;;11.78;93.10
818;BME280;391;51.052;6.954;2022-11-15T03:05:29;100251.91;;;11.79;93.17
818;BME280;391;51.052;6.954;2022-11-15T03:08:01;100259.81;;;11.83;92.76
818;BME280;391;51.052;6.954;2022-11-15T03:10:29;100243.13;;;11.74;92.63
818;BME280;391;51.052;6.954;2022-11-15T03:12:56;100268.53;;;11.84;92.75
818;BME280;391;51.052;6.954;2022-11-15T03:15:23;100258.09;;;11.84;92.98
818;BME280;391;51.052;6.954;2022-11-15T03:17:52;100253.66;;;11.81;92.92
818;BME280;391;51.052;6.954;2022-11-15T03:20:17;100251.09;;;11.83;92.88
818;BME280;391;51.052;6.954;2022-11-15T03:22:42;100258.09;;;11.84;93.21
818;BME280;391;51.052;6.954;2022-11-15T03:25:07;100264.19;;;11.86;93.30
818;BME280;391;51.052;6.954;2022-11-15T03:27:34;100266.88;;;11.89;93.33
818;BME280;391;51.052;6.954;2022-11-15T03:30:00;100265.97;;;11.88;93.25
818;BME280;391;51.052;6.954;2022-11-15T03:32:26;100251.94;;;11.82;93.16
818;BME280;391;51.052;6.954;2022-11-15T03:34:53;100254.69;;;11.91;93.22
818;BME280;391;51.052;6.954;2022-11-15T03:37:21;100260.91;;;11.97;93.35
818;BME280;391;51.052;6.954;2022-11-15T03:39:44;100260.94;;;11.99;93.12
818;BME280;391;51.052;6.954;2022-11-15T03:42:15;100255.72;;;12.00;93.04
818;BME280;391;51.052;6.954;2022-11-15T03:44:42;100253.06;;;11.97;93.05
818;BME280;391;51.052;6.954;2022-11-15T03:47:11;100256.63;;;12.02;93.08
818;BME280;391;51.052;6.954;2022-11-15T03:49:37;100244.38;;;12.00;93.15
818;BME280;391;51.052;6.954;2022-11-15T03:52:04;100243.53;;;11.99;93.26
818;BME280;391;51.052;6.954;2022-11-15T03:54:27;100247.88;;;11.99;92.95
818;BME280;391;51.052;6.954;2022-11-15T03:56:49;100255.69;;;11.99;92.96
818;BME280;391;51.052;6.954;2022-11-15T03:59:11;100251.38;;;11.99;93.00
818;BME280;391;51.052;6.954;2022-11-15T04:01:33;100251.31;;;11.98;93.01
818;BME280;391;51.052;6.954;2022-11-15T04:03:55;100246.94;;;11.97;93.25
818;BME280;391;51.052;6.954;2022-11-15T04:06:17;100240.00;;;11.97;93.26
818;BME280;391;51.052;6.954;2022-11-15T04:08:40;100248.78;;;12.02;93.33
818;BME280;391;51.052;6.954;2022-11-15T04:11:02;100243.56;;;12.02;93.06
818;BME280;391;51.052;6.954;2022-11-15T04:13:24;100235.78;;;12.05;92.87
818;BME280;391;51.052;6.954;2022-11-15T04:15:51;100238.34;;;12.04;93.09
818;BME280;391;51.052;6.954;2022-11-15T04:18:13;100234.94;;;12.09;92.69
818;BME280;391;51.052;6.954;2022-11-15T04:20:40;100234.97;;;12.11;92.64
818;BME280;391;51.052;6.954;2022-11-15T04:23:22;100225.38;;;12.10;92.72
818;BME280;391;51.052;6.954;2022-11-15T04:26:05;100238.41;;;12.07;92.85
818;BME280;391;51.052;6.954;2022-11-15T04:28:28;100177.00;;;11.76;92.76
818;BME280;391;51.052;6.954;2022-11-15T04:30:50;100222.72;;;12.05;92.72
818;BME280;391;51.052;6.954;2022-11-15T04:33:13;100219.22;;;12.05;92.77
818;BME280;391;51.052;6.954;2022-11-15T04:35:35;100223.56;;;12.03;92.89
818;BME280;391;51.052;6.954;2022-11-15T04:37:57;100226.16;;;12.04;92.76
818;BME280;391;51.052;6.954;2022-11-15T04:40:19;100227.91;;;12.02;92.63
818;BME280;391;51.052;6.954;2022-11-15T04:42:42;100227.91;;;12.02;92.87
818;BME280;391;51.052;6.954;2022-11-15T04:45:04;100226.16;;;12.03;92.69
818;BME280;391;51.052;6.954;2022-11-15T04:47:26;100227.94;;;12.05;92.97
818;BME280;391;51.052;6.954;2022-11-15T04:49:50;100223.63;;;12.10;92.71
818;BME280;391;51.052;6.954;2022-11-15T04:52:12;100227.13;;;12.11;92.77
818;BME280;391;51.052;6.954;2022-11-15T04:54:34;100235.88;;;12.13;92.74
818;BME280;391;51.052;6.954;2022-11-15T04:56:56;100234.09;;;12.10;92.75
818;BME280;391;51.052;6.954;2022-11-15T04:59:19;100228.03;;;12.13;92.70
818;BME280;391;51.052;6.954;2022-11-15T05:01:41;100228.06;;;12.14;92.97
818;BME280;391;51.052;6.954;2022-11-15T05:04:05;100233.34;;;12.19;92.62
818;BME280;391;51.052;6.954;2022-11-15T05:06:41;100229.88;;;12.20;92.56
818;BME280;391;51.052;6.954;2022-11-15T05:09:03;100227.31;;;12.23;92.49
818;BME280;391;51.052;6.954;2022-11-15T05:11:25;100217.56;;;12.13;92.35
818;BME280;391;51.052;6.954;2022-11-15T05:13:47;100230.75;;;12.22;92.38
818;BME280;391;51.052;6.954;2022-11-15T05:16:11;100235.16;;;12.23;92.07
818;BME280;391;51.052;6.954;2022-11-15T05:18:33;100232.56;;;12.25;92.26
818;BME280;391;51.052;6.954;2022-11-15T05:20:55;100237.75;;;12.23;92.07
818;BME280;391;51.052;6.954;2022-11-15T05:23:17;100234.31;;;12.26;91.96
818;BME280;391;51.052;6.954;2022-11-15T05:25:39;100232.63;;;12.29;91.94
818;BME280;391;51.052;6.954;2022-11-15T05:28:02;100227.34;;;12.26;91.88
818;BME280;391;51.052;6.954;2022-11-15T05:30:23;100226.47;;;12.24;92.31
818;BME280;391;51.052;6.954;2022-11-15T05:32:47;100229.03;;;12.21;92.38
818;BME280;391;51.052;6.954;2022-11-15T05:35:12;100229.06;;;12.24;92.41
818;BME280;391;51.052;6.954;2022-11-15T05:37:37;100231.72;;;12.27;92.02
818;BME280;391;51.052;6.954;2022-11-15T05:39:59;100228.25;;;12.28;92.12
818;BME280;391;51.052;6.954;2022-11-15T05:42:22;100225.66;;;12.30;92.11
818;BME280;391;51.052;6.954;2022-11-15T05:44:46;100231.75;;;12.30;92.03
818;BME280;391;51.052;6.954;2022-11-15T05:47:10;100176.44;;;12.00;91.93
818;BME280;391;51.052;6.954;2022-11-15T05:49:38;100224.72;;;12.25;92.26
818;BME280;391;51.052;6.954;2022-11-15T05:52:03;100227.34;;;12.26;92.22
818;BME280;391;51.052;6.954;2022-11-15T05:54:27;100236.06;;;12.27;92.12
818;BME280;391;51.052;6.954;2022-11-15T05:56:49;100228.25;;;12.30;92.13
818;BME280;391;51.052;6.954;2022-11-15T05:59:11;100231.72;;;12.27;92.02
818;BME280;391;51.052;6.954;2022-11-15T06:01:33;100229.06;;;12.24;91.92
818;BME280;391;51.052;6.954;2022-11-15T06:03:58;100229.88;;;12.20;92.15
818;BME280;391;51.052;6.954;2022-11-15T06:06:21;100234.22;;;12.18;92.17
818;BME280;391;51.052;6.954;2022-11-15T06:08:43;100177.19;;;11.90;91.80
818;BME280;391;51.052;6.954;2022-11-15T06:11:06;100240.28;;;12.17;91.68
818;BME280;391;51.052;6.954;2022-11-15T06:13:28;100249.84;;;12.16;91.73
818;BME280;391;51.052;6.954;2022-11-15T06:15:50;100243.75;;;12.14;91.57
818;BME280;391;51.052;6.954;2022-11-15T06:18:12;100247.25;;;12.15;91.50
818;BME280;391;51.052;6.954;2022-11-15T06:20:34;100256.72;;;12.08;91.60
818;BME280;391;51.052;6.954;2022-11-15T06:22:58;100257.41;;;11.97;92.31
818;BME280;391;51.052;6.954;2022-11-15T06:25:20;100253.81;;;11.90;92.75
818;BME280;391;51.052;6.954;2022-11-15T06:27:42;100253.75;;;11.86;92.75
818;BME280;391;51.052;6.954;2022-11-15T06:30:05;100252.00;;;11.85;92.79
818;BME280;391;51.052;6.954;2022-11-15T06:32:29;100267.63;;;11.82;92.48
818;BME280;391;51.052;6.954;2022-11-15T06:34:51;100263.28;;;11.82;92.50
818;BME280;391;51.052;6.954;2022-11-15T06:37:13;100266.72;;;11.81;92.50
818;BME280;391;51.052;6.954;2022-11-15T06:39:36;100267.56;;;11.79;92.07
818;BME280;391;51.052;6.954;2022-11-15T06:41:58;100272.78;;;11.79;92.04
818;BME280;391;51.052;6.954;2022-11-15T06:44:20;100275.44;;;11.80;91.84
818;BME280;391;51.052;6.954;2022-11-15T06:46:42;100278.84;;;11.76;91.78
818;BME280;391;51.052;6.954;2022-11-15T06:49:04;100273.56;;;11.73;91.53
818;BME280;391;51.052;6.954;2022-11-15T06:51:29;100276.16;;;11.72;91.76
818;BME280;391;51.052;6.954;2022-11-15T06:53:51;100270.13;;;11.76;91.76
818;BME280;391;51.052;6.954;2022-11-15T06:56:15;100282.31;;;11.75;91.74
818;BME280;391;51.052;6.954;2022-11-15T06:58:37;100277.94;;;11.74;91.56
818;BME280;391;51.052;6.954;2022-11-15T07:00:59;100284.97;;;11.77;91.41
818;BME280;391;51.052;6.954;2022-11-15T07:03:21;100284.06;;;11.76;91.44
818;BME280;391;51.052;6.954;2022-11-15T07:05:51;100288.34;;;11.73;91.54
818;BME280;391;51.052;6.954;2022-11-15T07:08:13;100289.19;;;11.72;91.38
818;BME280;391;51.052;6.954;2022-11-15T07:10:35;100291.84;;;11.73;91.14
818;BME280;391;51.052;6.954;2022-11-15T07:12:59;100295.22;;;11.67;91.08
818;BME280;391;51.052;6.954;2022-11-15T07:15:24;100304.69;;;11.62;91.31
818;BME280;391;51.052;6.954;2022-11-15T07:17:46;100301.22;;;11.63;91.30
818;BME280;391;51.052;6.954;2022-11-15T07:20:09;100306.41;;;11.60;91.24
818;BME280;391;51.052;6.954;2022-11-15T07:22:32;100304.56;;;11.56;91.13
818;BME280;391;51.052;6.954;2022-11-15T07:24:54;100314.13;;;11.56;91.40
818;BME280;391;51.052;6.954;2022-11-15T07:27:16;100323.63;;;11.52;91.18
818;BME280;391;51.052;6.954;2022-11-15T07:29:39;100320.09;;;11.49;90.79
818;BME280;391;51.052;6.954;2022-11-15T07:32:01;100325.31;;;11.49;90.90
818;BME280;391;51.052;6.954;2022-11-15T07:34:23;100325.38;;;11.52;90.88
818;BME280;391;51.052;6.954;2022-11-15T07:36:46;100324.56;;;11.54;90.75
818;BME280;391;51.052;6.954;2022-11-15T07:39:08;100309.53;;;11.41;90.58
818;BME280;391;51.052;6.954;2022-11-15T07:41:30;100329.69;;;11.50;90.50
818;BME280;391;51.052;6.954;2022-11-15T07:43:52;100338.53;;;11.56;90.40
818;BME280;391;51.052;6.954;2022-11-15T07:46:15;100327.19;;;11.54;90.23
818;BME280;391;51.052;6.954;2022-11-15T07:48:38;100335.00;;;11.54;90.22
818;BME280;391;51.052;6.954;2022-11-15T07:51:04;100332.41;;;11.56;90.24
818;BME280;391;51.052;6.954;2022-11-15T07:53:33;100329.84;;;11.59;90.31
818;BME280;391;51.052;6.954;2022-11-15T07:55:55;100332.47;;;11.57;89.84
818;BME280;391;51.052;6.954;2022-11-15T07:58:17;100341.19;;;11.59;90.07
818;BME280;391;51.052;6.954;2022-11-15T08:00:39;100334.25;;;11.61;89.88
818;BME280;391;51.052;6.954;2022-11-15T08:03:03;100337.78;;;11.65;89.62
818;BME280;391;51.052;6.954;2022-11-15T08:05:25;100270.03;;;11.23;89.60
818;BME280;391;51.052;6.954;2022-11-15T08:07:47;100331.63;;;11.61;89.32
818;BME280;391;51.052;6.954;2022-11-15T08:10:12;100331.63;;;11.60;89.03
818;BME280;391;51.052;6.954;2022-11-15T08:12:37;100331.72;;;11.64;88.64
818;BME280;391;51.052;6.954;2022-11-15T08:14:59;100333.44;;;11.64;88.34
818;BME280;391;51.052;6.954;2022-11-15T08:17:21;100333.47;;;11.65;88.12
818;BME280;391;51.052;6.954;2022-11-15T08:19:44;100330.00;;;11.66;88.43
818;BME280;391;51.052;6.954;2022-11-15T08:22:06;100341.34;;;11.67;88.00
818;BME280;391;51.052;6.954;2022-11-15T08:24:28;100286.72;;;11.33;87.80
818;BME280;391;51.052;6.954;2022-11-15T08:26:50;100280.78;;;11.38;87.96
818;BME280;391;51.052;6.954;2022-11-15T08:29:12;100329.13;;;11.64;87.58
818;BME280;391;51.052;6.954;2022-11-15T08:31:35;100328.22;;;11.65;87.51
818;BME280;391;51.052;6.954;2022-11-15T08:33:57;100326.63;;;11.71;86.73
818;BME280;391;51.052;6.954;2022-11-15T08:36:21;100323.94;;;11.69;86.68
818;BME280;391;51.052;6.954;2022-11-15T08:38:43;100325.00;;;11.77;86.21
818;BME280;391;51.052;6.954;2022-11-15T08:41:05;100319.84;;;11.80;86.23
818;BME280;391;51.052;6.954;2022-11-15T08:43:27;100318.06;;;11.81;85.81
818;BME280;391;51.052;6.954;2022-11-15T08:45:50;100304.22;;;11.83;85.61
818;BME280;391;51.052;6.954;2022-11-15T08:48:12;100315.56;;;11.84;85.48
818;BME280;391;51.052;6.954;2022-11-15T08:50:34;100260.22;;;11.58;85.07
818;BME280;391;51.052;6.954;2022-11-15T08:52:59;100310.44;;;11.90;84.49
818;BME280;391;51.052;6.954;2022-11-15T08:55:25;100310.63;;;12.02;83.99
818;BME280;391;51.052;6.954;2022-11-15T08:57:47;100296.63;;;11.98;83.58
818;BME280;391;51.052;6.954;2022-11-15T09:00:11;100298.53;;;12.08;83.08
818;BME280;391;51.052;6.954;2022-11-15T09:02:33;100294.94;;;12.03;82.80
818;BME280;391;51.052;6.954;2022-11-15T09:04:55;100291.34;;;11.97;82.40
818;BME280;391;51.052;6.954;2022-11-15T09:07:17;100297.69;;;12.12;82.42
818;BME280;391;51.052;6.954;2022-11-15T09:09:41;100301.41;;;12.25;81.54
818;BME280;391;51.052;6.954;2022-11-15T09:12:03;100289.22;;;12.27;80.90
818;BME280;391;51.052;6.954;2022-11-15T09:14:25;100294.50;;;12.30;80.07
818;BME280;391;51.052;6.954;2022-11-15T09:16:47;100298.72;;;12.22;79.86
818;BME280;391;51.052;6.954;2022-11-15T09:19:09;100305.84;;;12.32;79.56
818;BME280;391;51.052;6.954;2022-11-15T09:21:32;100291.22;;;12.43;79.14
818;BME280;391;51.052;6.954;2022-11-15T09:23:54;100299.09;;;12.46;78.69
818;BME280;391;51.052;6.954;2022-11-15T09:26:17;100297.34;;;12.47;77.18
818;BME280;391;51.052;6.954;2022-11-15T09:28:39;100293.19;;;12.59;76.83
818;BME280;391;51.052;6.954;2022-11-15T09:31:04;100299.38;;;12.66;76.50
818;BME280;391;51.052;6.954;2022-11-15T09:33:27;100292.56;;;12.79;75.83
818;BME280;391;51.052;6.954;2022-11-15T09:35:50;100291.63;;;12.75;75.17
818;BME280;391;51.052;6.954;2022-11-15T09:38:12;100294.28;;;12.78;75.55
818;BME280;391;51.052;6.954;2022-11-15T09:40:36;100279.59;;;12.88;75.45
818;BME280;391;51.052;6.954;2022-11-15T09:43:08;100274.31;;;12.86;74.43
818;BME280;391;51.052;6.954;2022-11-15T09:45:38;100273.50;;;12.90;74.94
818;BME280;391;51.052;6.954;2022-11-15T09:48:39;100273.56;;;12.96;74.39
818;BME280;391;51.052;6.954;2022-11-15T09:51:14;100266.69;;;13.06;74.53
818;BME280;391;51.052;6.954;2022-11-15T09:53:25;100253.78;;;13.16;74.82
818;BME280;391;51.052;6.954;2022-11-15T09:55:55;100249.56;;;13.32;73.83
818;BME280;391;51.052;6.954;2022-11-15T09:58:13;100257.44;;;13.32;73.07
818;BME280;391;51.052;6.954;2022-11-15T10:00:21;100240.72;;;13.21;72.85
818;BME280;391;51.052;6.954;2022-11-15T10:03:08;100241.50;;;13.12;72.59
818;BME280;391;51.052;6.954;2022-11-15T10:05:15;100234.53;;;13.13;71.93
818;BME280;391;51.052;6.954;2022-11-15T10:07:24;100239.81;;;13.16;71.08
818;BME280;391;51.052;6.954;2022-11-15T10:09:36;100232.03;;;13.23;70.53
818;BME280;391;51.052;6.954;2022-11-15T10:11:43;100226.91;;;13.37;70.17
818;BME280;391;51.052;6.954;2022-11-15T10:13:49;100210.50;;;13.55;69.69
818;BME280;391;51.052;6.954;2022-11-15T10:16:00;100203.59;;;13.64;68.42
818;BME280;391;51.052;6.954;2022-11-15T10:18:14;100217.59;;;13.72;68.22
818;BME280;391;51.052;6.954;2022-11-15T10:20:21;100208.84;;;13.67;67.46
818;BME280;391;51.052;6.954;2022-11-15T10:22:28;100201.78;;;13.56;67.13
818;BME280;391;51.052;6.954;2022-11-15T10:24:35;100205.34;;;13.64;67.54
818;BME280;391;51.052;6.954;2022-11-15T10:26:45;100212.41;;;13.77;67.12
818;BME280;391;51.052;6.954;2022-11-15T10:28:51;100209.00;;;13.92;66.53
818;BME280;391;51.052;6.954;2022-11-15T10:30:56;100204.75;;;14.06;65.64
818;BME280;391;51.052;6.954;2022-11-15T10:33:16;100207.41;;;14.12;65.15
818;BME280;391;51.052;6.954;2022-11-15T10:35:23;100196.03;;;14.11;64.10
818;BME280;391;51.052;6.954;2022-11-15T10:37:29;100188.38;;;14.42;63.96
818;BME280;391;51.052;6.954;2022-11-15T10:39:32;100182.25;;;14.43;63.95
818;BME280;391;51.052;6.954;2022-11-15T10:41:38;100188.25;;;14.26;62.32
818;BME280;391;51.052;6.954;2022-11-15T10:43:42;100186.59;;;14.36;63.30
818;BME280;391;51.052;6.954;2022-11-15T10:45:47;100193.59;;;14.37;61.88
818;BME280;391;51.052;6.954;2022-11-15T10:47:52;100196.13;;;14.28;60.81
818;BME280;391;51.052;6.954;2022-11-15T10:49:58;100185.63;;;14.26;61.36
818;BME280;391;51.052;6.954;2022-11-15T10:52:12;100178.78;;;14.45;60.91
818;BME280;391;51.052;6.954;2022-11-15T10:54:23;100180.59;;;14.61;60.39
818;BME280;391;51.052;6.954;2022-11-15T10:56:27;100178.81;;;14.60;60.78
818;BME280;391;51.052;6.954;2022-11-15T10:58:34;100170.91;;;14.53;60.39
818;BME280;391;51.052;6.954;2022-11-15T11:00:38;100167.44;;;14.58;59.41
818;BME280;391;51.052;6.954;2022-11-15T11:02:57;100157.91;;;14.77;59.44
818;BME280;391;51.052;6.954;2022-11-15T11:05:02;100169.25;;;14.70;58.36
818;BME280;391;51.052;6.954;2022-11-15T11:07:19;100156.13;;;14.80;58.38
818;BME280;391;51.052;6.954;2022-11-15T11:09:32;100159.66;;;14.90;58.08
818;BME280;391;51.052;6.954;2022-11-15T11:11:45;100164.97;;;15.23;58.12
818;BME280;391;51.052;6.954;2022-11-15T11:13:48;100155.31;;;15.13;55.20
818;BME280;391;51.052;6.954;2022-11-15T11:15:55;100156.19;;;15.35;55.60
818;BME280;391;51.052;6.954;2022-11-15T11:18:07;100162.34;;;15.31;55.61
818;BME280;391;51.052;6.954;2022-11-15T11:20:22;100156.19;;;15.46;55.34
818;BME280;391;51.052;6.954;2022-11-15T11:22:34;100151.84;;;15.48;54.49
818;BME280;391;51.052;6.954;2022-11-15T11:24:44;100143.94;;;15.23;54.77
818;BME280;391;51.052;6.954;2022-11-15T11:27:04;100151.81;;;15.45;54.56
818;BME280;391;51.052;6.954;2022-11-15T11:29:21;100158.81;;;15.38;53.75
818;BME280;391;51.052;6.954;2022-11-15T11:31:37;100148.31;;;15.17;54.05
818;BME280;391;51.052;6.954;2022-11-15T11:33:50;100136.88;;;14.81;54.24
818;BME280;391;51.052;6.954;2022-11-15T11:36:05;100136.91;;;14.77;54.66
818;BME280;391;51.052;6.954;2022-11-15T11:38:21;100134.25;;;14.72;54.72
818;BME280;391;51.052;6.954;2022-11-15T11:40:29;100136.88;;;14.69;54.34
818;BME280;391;51.052;6.954;2022-11-15T11:42:39;100132.47;;;14.65;54.83
818;BME280;391;51.052;6.954;2022-11-15T11:44:54;100133.34;;;14.54;54.86
818;BME280;391;51.052;6.954;2022-11-15T11:47:08;100132.50;;;14.73;54.93
818;BME280;391;51.052;6.954;2022-11-15T11:49:17;100129.03;;;14.88;54.66
818;BME280;391;51.052;6.954;2022-11-15T11:51:26;100127.31;;;15.15;53.59
818;BME280;391;51.052;6.954;2022-11-15T11:53:35;100125.56;;;15.14;53.86
818;BME280;391;51.052;6.954;2022-11-15T11:55:44;100128.19;;;15.23;53.49
818;BME280;391;51.052;6.954;2022-11-15T11:57:53;100122.94;;;15.20;53.94
818;BME280;391;51.052;6.954;2022-11-15T12:00:04;100127.28;;;15.38;53.18
818;BME280;391;51.052;6.954;2022-11-15T12:02:18;100134.31;;;15.42;53.65
818;BME280;391;51.052;6.954;2022-11-15T12:04:29;100130.84;;;15.49;53.70
818;BME280;391;51.052;6.954;2022-11-15T12:06:36;100129.06;;;15.60;53.25
818;BME280;391;51.052;6.954;2022-11-15T12:08:46;100116.81;;;15.62;53.56
818;BME280;391;51.052;6.954;2022-11-15T12:10:54;100107.16;;;15.75;52.60
818;BME280;391;51.052;6.954;2022-11-15T12:13:04;100107.13;;;15.85;52.75
818;BME280;391;51.052;6.954;2022-11-15T12:15:12;100097.44;;;15.94;52.68
818;BME280;391;51.052;6.954;2022-11-15T12:17:23;100105.31;;;16.03;52.57
818;BME280;391;51.052;6.954;2022-11-15T12:19:28;100081.63;;;16.10;52.28
818;BME280;391;51.052;6.954;2022-11-15T12:21:36;100088.66;;;16.11;51.86
818;BME280;391;51.052;6.954;2022-11-15T12:23:46;100085.19;;;16.02;52.68
818;BME280;391;51.052;6.954;2022-11-15T12:25:54;100057.25;;;15.61;53.04
818;BME280;391;51.052;6.954;2022-11-15T12:28:03;100071.25;;;15.57;53.21
818;BME280;391;51.052;6.954;2022-11-15T12:30:13;100082.63;;;15.46;53.64
818;BME280;391;51.052;6.954;2022-11-15T12:32:27;100058.13;;;15.25;54.28
818;BME280;391;51.052;6.954;2022-11-15T12:34:40;100066.91;;;15.21;54.86
818;BME280;391;51.052;6.954;2022-11-15T12:36:45;100062.53;;;15.25;55.07
818;BME280;391;51.052;6.954;2022-11-15T12:38:56;100062.53;;;15.25;55.41
818;BME280;391;51.052;6.954;2022-11-15T12:41:14;100053.78;;;15.17;55.88
818;BME280;391;51.052;6.954;2022-11-15T12:43:43;100047.66;;;15.19;55.74
818;BME280;391;51.052;6.954;2022-11-15T12:45:46;100038.88;;;15.19;56.26
818;BME280;391;51.052;6.954;2022-11-15T12:47:50;100038.03;;;15.15;56.44
818;BME280;391;51.052;6.954;2022-11-15T12:49:55;100028.41;;;15.05;56.59
818;BME280;391;51.052;6.954;2022-11-15T12:52:08;100031.03;;;15.04;56.49
818;BME280;391;51.052;6.954;2022-11-15T12:57:28;100016.13;;;15.19;56.20
818;BME280;391;51.052;6.954;2022-11-15T12:59:50;100007.38;;;15.31;55.74
818;BME280;391;51.052;6.954;2022-11-15T13:01:57;100001.25;;;15.20;56.29